createdAt,value
2023-01-30T00:02:41.880Z,-5.60
2023-01-30T00:05:44.757Z,-5.66
2023-01-30T00:08:47.959Z,-5.72
2023-01-30T00:11:50.892Z,-5.78
2023-01-30T00:14:53.859Z,-5.87
2023-01-30T00:17:56.763Z,-5.95
2023-01-30T00:21:02.845Z,-6.03
2023-01-30T00:24:06.758Z,-6.10
2023-01-30T00:27:09.749Z,-6.17
2023-01-30T00:30:13.147Z,-6.22
2023-01-30T00:33:17.154Z,-6.28
2023-01-30T00:36:20.168Z,-6.33
2023-01-30T00:39:23.194Z,-6.40
2023-01-30T00:42:44.908Z,-6.46
2023-01-30T00:46:07.924Z,-6.55
2023-01-30T00:49:11.473Z,-6.59
2023-01-30T00:52:14.423Z,-6.61
2023-01-30T00:55:17.553Z,-6.63
2023-01-30T00:58:21.281Z,-6.62
2023-01-30T01:01:24.247Z,-6.60
2023-01-30T01:04:27.405Z,-6.59
2023-01-30T01:07:30.343Z,-6.58
2023-01-30T01:10:33.844Z,-6.57
2023-01-30T01:13:36.974Z,-6.58
2023-01-30T01:16:40.141Z,-6.56
2023-01-30T01:19:43.038Z,-6.51
2023-01-30T01:22:49.807Z,-6.40
2023-01-30T01:25:52.792Z,-6.35
2023-01-30T01:28:59.268Z,-6.33
2023-01-30T01:32:02.217Z,-6.30
2023-01-30T01:35:06.281Z,-6.32
2023-01-30T01:38:09.207Z,-6.35
2023-01-30T01:41:14.021Z,-6.40
2023-01-30T01:44:19.725Z,-6.45
2023-01-30T01:47:22.901Z,-6.50
2023-01-30T01:50:32.220Z,-6.54
2023-01-30T01:53:51.517Z,-6.58
2023-01-30T01:56:54.786Z,-6.61
2023-01-30T02:00:11.748Z,-6.59
2023-01-30T02:03:24.249Z,-6.58
2023-01-30T02:06:28.049Z,-6.60
2023-01-30T02:09:31.010Z,-6.60
2023-01-30T02:12:33.963Z,-6.63
2023-01-30T02:15:37.103Z,-6.65
2023-01-30T02:18:42.905Z,-6.66
2023-01-30T02:22:36.363Z,-6.67
2023-01-30T02:25:49.632Z,-6.66
2023-01-30T02:29:05.162Z,-6.64
2023-01-30T02:32:17.276Z,-6.57
2023-01-30T02:35:38.061Z,-6.47
2023-01-30T02:39:09.022Z,-6.36
2023-01-30T02:42:21.027Z,-6.20
2023-01-30T02:45:39.638Z,-6.09
2023-01-30T02:48:56.963Z,-6.11
2023-01-30T02:52:03.616Z,-6.11
2023-01-30T02:55:19.674Z,-6.11
2023-01-30T02:58:26.822Z,-6.08
2023-01-30T03:01:52.471Z,-6.03
2023-01-30T03:05:02.619Z,-5.97
2023-01-30T03:08:13.830Z,-5.90
2023-01-30T03:11:17.875Z,-5.79
2023-01-30T03:14:33.106Z,-5.71
2023-01-30T03:17:38.238Z,-5.62
2023-01-30T03:20:41.744Z,-5.54
2023-01-30T03:23:46.920Z,-5.48
2023-01-30T03:27:04.217Z,-5.42
2023-01-30T03:30:08.052Z,-5.31
2023-01-30T03:33:11.564Z,-5.22
2023-01-30T03:36:14.625Z,-5.16
2023-01-30T03:39:17.677Z,-5.09
2023-01-30T03:42:20.609Z,-5.00
2023-01-30T03:45:23.595Z,-4.93
2023-01-30T03:48:26.823Z,-4.87
2023-01-30T03:51:29.611Z,-4.85
2023-01-30T03:54:32.637Z,-4.84
2023-01-30T03:57:35.519Z,-4.81
2023-01-30T04:00:38.592Z,-4.77
2023-01-30T04:03:41.606Z,-4.74
2023-01-30T04:06:44.522Z,-4.71
2023-01-30T04:09:47.732Z,-4.71
2023-01-30T04:12:51.238Z,-4.76
2023-01-30T04:15:54.314Z,-4.82
2023-01-30T04:18:57.385Z,-4.85
2023-01-30T04:22:00.384Z,-4.82
2023-01-30T04:25:03.696Z,-4.77
2023-01-30T04:28:06.595Z,-4.70
2023-01-30T04:31:09.725Z,-4.63
2023-01-30T04:34:12.756Z,-4.54
2023-01-30T04:37:15.653Z,-4.46
2023-01-30T04:40:18.692Z,-4.38
2023-01-30T04:43:22.736Z,-4.29
2023-01-30T04:46:25.677Z,-4.22
2023-01-30T04:49:28.809Z,-4.15
2023-01-30T04:52:31.771Z,-4.08
2023-01-30T04:55:34.696Z,-4.01
2023-01-30T04:58:37.720Z,-3.95
2023-01-30T05:01:40.882Z,-3.89
2023-01-30T05:04:43.772Z,-3.84
2023-01-30T05:07:46.769Z,-3.79
2023-01-30T05:10:49.817Z,-3.74
2023-01-30T05:13:53.212Z,-3.70
2023-01-30T05:16:56.176Z,-3.66
2023-01-30T05:19:59.223Z,-3.64
2023-01-30T05:23:02.247Z,-3.63
2023-01-30T05:26:05.820Z,-3.61
2023-01-30T05:29:11.093Z,-3.58
2023-01-30T05:32:19.338Z,-3.52
2023-01-30T05:35:22.214Z,-3.48
2023-01-30T05:38:25.746Z,-3.42
2023-01-30T05:41:28.830Z,-3.39
2023-01-30T05:44:31.903Z,-3.38
2023-01-30T05:47:34.755Z,-3.34
2023-01-30T05:50:37.843Z,-3.30
2023-01-30T05:53:40.695Z,-3.27
2023-01-30T05:56:43.558Z,-3.22
2023-01-30T05:59:46.606Z,-3.22
2023-01-30T06:02:49.719Z,-3.22
2023-01-30T06:05:52.824Z,-3.23
2023-01-30T06:08:56.543Z,-3.20
2023-01-30T06:11:59.596Z,-3.15
2023-01-30T06:15:02.656Z,-3.12
2023-01-30T06:18:05.535Z,-3.09
2023-01-30T06:21:09.595Z,-3.06
2023-01-30T06:24:12.675Z,-3.05
2023-01-30T06:27:15.460Z,-3.02
2023-01-30T06:30:18.653Z,-2.97
2023-01-30T06:33:21.849Z,-2.93
2023-01-30T06:36:24.827Z,-2.88
2023-01-30T06:39:27.628Z,-2.86
2023-01-30T06:42:30.729Z,-2.84
2023-01-30T06:45:33.910Z,-2.82
2023-01-30T06:48:36.898Z,-2.79
2023-01-30T06:51:39.760Z,-2.76
2023-01-30T06:54:42.668Z,-2.81
2023-01-30T06:57:46.178Z,-2.89
2023-01-30T07:00:49.336Z,-2.97
2023-01-30T07:03:52.238Z,-3.02
2023-01-30T07:06:55.187Z,-3.01
2023-01-30T07:10:07.279Z,-3.01
2023-01-30T07:13:11.515Z,-2.96
2023-01-30T07:16:14.525Z,-2.90
2023-01-30T07:19:17.373Z,-2.87
2023-01-30T07:22:20.550Z,-2.84
2023-01-30T07:25:25.745Z,-2.86
2023-01-30T07:28:28.884Z,-2.85
2023-01-30T07:31:31.760Z,-2.84
2023-01-30T07:34:34.727Z,-2.77
2023-01-30T07:37:37.708Z,-2.65
2023-01-30T07:40:40.586Z,-2.55
2023-01-30T07:43:43.502Z,-2.49
2023-01-30T07:46:46.394Z,-2.44
2023-01-30T07:49:49.247Z,-2.36
2023-01-30T07:52:52.112Z,-2.27
2023-01-30T07:55:54.944Z,-2.19
2023-01-30T07:58:57.926Z,-2.09
2023-01-30T08:02:00.829Z,-1.96
2023-01-30T08:05:06.094Z,-1.83
2023-01-30T08:08:09.195Z,-1.74
2023-01-30T08:11:12.315Z,-1.67
2023-01-30T08:14:15.472Z,-1.64
2023-01-30T08:17:18.385Z,-1.56
2023-01-30T08:20:21.540Z,-1.35
2023-01-30T08:23:24.857Z,-1.18
2023-01-30T08:26:27.746Z,-1.05
2023-01-30T08:29:30.781Z,-1.09
2023-01-30T08:32:33.562Z,-1.14
2023-01-30T08:35:36.435Z,-1.32
2023-01-30T08:38:39.364Z,-1.47
2023-01-30T08:41:43.350Z,-1.52
2023-01-30T08:44:46.309Z,-1.35
2023-01-30T08:47:49.185Z,-1.14
2023-01-30T08:50:53.723Z,-1.01
2023-01-30T08:53:56.776Z,-1.00
2023-01-30T08:56:59.626Z,-1.04
2023-01-30T09:00:02.771Z,-1.00
2023-01-30T09:03:05.779Z,-0.90
2023-01-30T09:06:09.418Z,-0.65
2023-01-30T09:09:12.306Z,-0.29
2023-01-30T09:12:15.423Z,0.05
2023-01-30T09:15:18.520Z,0.25
2023-01-30T09:18:21.404Z,0.42
2023-01-30T09:21:24.652Z,0.50
2023-01-30T09:24:27.977Z,0.66
2023-01-30T09:27:31.209Z,0.76
2023-01-30T09:30:34.646Z,0.83
2023-01-30T09:33:37.653Z,0.76
2023-01-30T09:36:40.952Z,0.74
2023-01-30T09:39:43.809Z,0.59
2023-01-30T09:43:03.878Z,0.46
2023-01-30T09:46:18.364Z,0.41
2023-01-30T09:49:35.397Z,0.35
2023-01-30T09:52:38.120Z,0.24
2023-01-30T09:55:42.204Z,0.12
2023-01-30T09:58:52.052Z,0.08
2023-01-30T10:02:19.807Z,0.04
2023-01-30T10:05:35.707Z,0.06
2023-01-30T10:08:47.985Z,0.14
2023-01-30T10:12:25.073Z,0.19
2023-01-30T10:15:38.915Z,0.27
2023-01-30T10:18:44.789Z,0.33
2023-01-30T10:21:57.289Z,0.48
2023-01-30T10:25:18.995Z,0.60
2023-01-30T10:28:27.717Z,0.68
2023-01-30T10:31:37.387Z,0.62
2023-01-30T10:34:52.902Z,0.50
2023-01-30T10:38:08.103Z,0.51
2023-01-30T10:41:43.601Z,0.52
2023-01-30T10:44:48.049Z,0.44
2023-01-30T10:48:31.445Z,0.39
2023-01-30T10:51:57.365Z,0.32
2023-01-30T10:55:19.888Z,0.30
2023-01-30T10:58:37.952Z,0.25
2023-01-30T11:01:45.504Z,0.14
2023-01-30T11:05:02.035Z,-0.05
2023-01-30T11:08:08.683Z,-0.11
2023-01-30T11:11:30.104Z,-0.14
2023-01-30T11:14:54.748Z,-0.15
2023-01-30T11:18:40.366Z,-0.07
2023-01-30T11:21:42.360Z,0.06
2023-01-30T11:24:46.869Z,0.08
2023-01-30T11:27:56.446Z,0.06
2023-01-30T11:31:01.363Z,-0.00
2023-01-30T11:34:14.911Z,0.01
2023-01-30T11:37:31.503Z,0.09
2023-01-30T11:40:38.313Z,0.17
2023-01-30T11:43:41.265Z,0.19
2023-01-30T11:46:44.328Z,0.27
2023-01-30T11:50:03.280Z,0.31
2023-01-30T11:53:33.133Z,0.34
2023-01-30T11:56:47.760Z,0.41
2023-01-30T11:59:59.319Z,0.45
2023-01-30T12:03:06.548Z,0.50
2023-01-30T12:06:09.531Z,0.55
2023-01-30T12:09:50.506Z,0.63
2023-01-30T12:12:56.665Z,0.70
2023-01-30T12:16:12.981Z,0.78
2023-01-30T12:19:31.380Z,0.98
2023-01-30T12:22:34.089Z,1.19
2023-01-30T12:26:02.996Z,1.18
2023-01-30T12:29:34.161Z,1.17
2023-01-30T12:32:37.083Z,1.29
2023-01-30T12:35:49.254Z,1.37
2023-01-30T12:39:25.095Z,1.35
2023-01-30T12:42:37.108Z,1.26
2023-01-30T12:45:50.618Z,1.16
2023-01-30T12:49:10.907Z,0.97
2023-01-30T12:52:33.371Z,0.86
2023-01-30T12:55:54.810Z,0.76
2023-01-30T12:59:23.144Z,0.74
2023-01-30T13:02:50.681Z,0.84
2023-01-30T13:06:14.848Z,0.83
2023-01-30T13:09:38.665Z,0.81
2023-01-30T13:12:56.962Z,0.74
2023-01-30T13:16:50.551Z,0.65
2023-01-30T13:20:15.338Z,0.67
2023-01-30T13:23:27.301Z,0.60
2023-01-30T13:26:35.537Z,0.48
2023-01-30T13:29:41.147Z,0.45
2023-01-30T13:32:49.378Z,0.49
2023-01-30T13:36:27.886Z,0.53
2023-01-30T13:39:45.371Z,0.56
2023-01-30T13:42:51.350Z,0.61
2023-01-30T13:45:58.307Z,0.59
2023-01-30T13:49:05.147Z,0.55
2023-01-30T13:52:20.646Z,0.53
2023-01-30T13:55:26.507Z,0.58
2023-01-30T13:58:53.161Z,0.52
2023-01-30T14:02:16.827Z,0.53
2023-01-30T14:05:54.048Z,0.48
2023-01-30T14:08:59.602Z,0.38
2023-01-30T14:12:04.259Z,0.36
2023-01-30T14:15:24.328Z,0.37
2023-01-30T14:18:34.098Z,0.36
2023-01-30T14:21:38.577Z,0.32
2023-01-30T14:24:42.597Z,0.29
2023-01-30T14:27:45.433Z,0.26
2023-01-30T14:30:59.733Z,0.29
2023-01-30T14:34:02.735Z,0.47
2023-01-30T14:37:45.453Z,0.72
2023-01-30T14:41:37.619Z,0.86
2023-01-30T14:45:14.141Z,0.90
2023-01-30T14:48:52.950Z,0.90
2023-01-30T14:51:56.553Z,0.86
2023-01-30T14:54:59.701Z,0.85
2023-01-30T14:58:04.073Z,0.83
2023-01-30T15:01:07.194Z,0.83
2023-01-30T15:04:16.344Z,0.84
2023-01-30T15:07:24.428Z,0.81
2023-01-30T15:10:49.165Z,0.77
2023-01-30T15:14:12.034Z,0.73
2023-01-30T15:17:31.248Z,0.70
2023-01-30T15:20:38.317Z,0.67
2023-01-30T15:23:47.417Z,0.61
2023-01-30T15:26:53.537Z,0.61
2023-01-30T15:30:17.576Z,0.57
2023-01-30T15:33:31.000Z,0.56
2023-01-30T15:36:37.183Z,0.58
2023-01-30T15:39:40.327Z,0.61
2023-01-30T15:43:11.449Z,0.60
2023-01-30T15:46:26.701Z,0.62
2023-01-30T15:49:41.957Z,0.63
2023-01-30T15:52:49.573Z,0.61
2023-01-30T15:55:54.105Z,0.62
2023-01-30T15:59:00.315Z,0.62
2023-01-30T16:02:16.674Z,0.66
2023-01-30T16:05:23.667Z,0.63
2023-01-30T16:08:30.859Z,0.64
2023-01-30T16:11:42.161Z,0.64
2023-01-30T16:14:45.054Z,0.68
2023-01-30T16:17:56.464Z,0.68
2023-01-30T16:21:02.995Z,0.75
2023-01-30T16:24:17.290Z,0.79
2023-01-30T16:27:24.542Z,0.81
2023-01-30T16:30:29.839Z,0.79
2023-01-30T16:33:36.888Z,0.79
2023-01-30T16:36:41.098Z,0.78
2023-01-30T16:39:46.509Z,0.79
2023-01-30T16:42:59.653Z,0.80
2023-01-30T16:46:36.899Z,0.80
2023-01-30T16:49:45.924Z,0.81
2023-01-30T16:52:54.437Z,0.83
2023-01-30T16:56:03.832Z,0.85
2023-01-30T16:59:18.038Z,0.91
2023-01-30T17:02:43.423Z,0.92
2023-01-30T17:09:33.631Z,0.89
2023-01-30T17:12:38.071Z,0.90
2023-01-30T17:15:40.980Z,0.86
2023-01-30T17:18:47.323Z,0.84
2023-01-30T17:21:51.891Z,0.80
2023-01-30T17:25:02.672Z,0.78
2023-01-30T17:28:07.646Z,0.76
2023-01-30T17:31:16.260Z,0.75
2023-01-30T17:34:19.938Z,0.70
2023-01-30T17:37:23.176Z,0.71
2023-01-30T17:40:35.663Z,0.70
2023-01-30T17:43:38.408Z,0.74
2023-01-30T17:46:46.859Z,0.74
2023-01-30T17:49:49.710Z,0.77
2023-01-30T17:52:52.600Z,0.78
2023-01-30T17:55:55.497Z,0.77
2023-01-30T17:58:58.469Z,0.76
2023-01-30T18:02:01.790Z,0.73
2023-01-30T18:05:05.382Z,0.74
2023-01-30T18:08:08.325Z,0.76
2023-01-30T18:11:12.150Z,0.75
2023-01-30T18:14:15.451Z,0.75
2023-01-30T18:17:18.589Z,0.74
2023-01-30T18:20:21.862Z,0.75
2023-01-30T18:23:25.111Z,0.74
2023-01-30T18:26:28.214Z,0.74
2023-01-30T18:29:31.275Z,0.77
2023-01-30T18:32:37.713Z,0.78
2023-01-30T18:35:40.607Z,0.80
2023-01-30T18:38:43.740Z,0.82
2023-01-30T18:41:46.669Z,0.83
2023-01-30T18:44:49.527Z,0.90
2023-01-30T18:47:53.340Z,0.87
2023-01-30T18:51:03.945Z,0.86
2023-01-30T18:54:06.822Z,0.89
2023-01-30T18:57:09.801Z,0.90
2023-01-30T19:00:13.070Z,0.91
2023-01-30T19:03:19.146Z,0.92
2023-01-30T19:06:22.805Z,0.94
2023-01-30T19:09:27.255Z,0.95
2023-01-30T19:12:48.617Z,0.96
2023-01-30T19:15:51.791Z,0.97
2023-01-30T19:18:55.951Z,0.99
2023-01-30T19:21:59.307Z,0.98
2023-01-30T19:25:02.560Z,1.01
2023-01-30T19:28:06.565Z,1.01
2023-01-30T19:31:10.834Z,1.02
2023-01-30T19:34:13.737Z,1.02
2023-01-30T19:37:16.623Z,1.04
2023-01-30T19:40:19.946Z,1.07
2023-01-30T19:43:23.085Z,1.09
2023-01-30T19:46:28.909Z,1.16
2023-01-30T19:49:34.532Z,1.19
2023-01-30T19:52:38.650Z,1.21
2023-01-30T19:55:41.575Z,1.19
2023-01-30T19:58:44.597Z,1.05
2023-01-30T20:01:47.661Z,0.95
2023-01-30T20:04:50.743Z,0.84
2023-01-30T20:07:54.776Z,0.76
2023-01-30T20:11:02.553Z,0.66
2023-01-30T20:14:07.151Z,0.62
2023-01-30T20:17:10.783Z,0.58
2023-01-30T20:20:13.708Z,0.54
2023-01-30T20:23:17.582Z,0.56
2023-01-30T20:26:23.637Z,0.62
2023-01-30T20:29:26.644Z,0.68
2023-01-30T20:32:29.705Z,0.72
2023-01-30T20:35:35.800Z,0.77
2023-01-30T20:38:40.877Z,0.83
2023-01-30T20:41:43.719Z,0.85
2023-01-30T20:44:46.579Z,0.83
2023-01-30T20:47:49.512Z,0.78
2023-01-30T20:50:52.359Z,0.74
2023-01-30T20:54:00.186Z,0.70
2023-01-30T20:57:04.967Z,0.67
2023-01-30T21:00:08.697Z,0.63
2023-01-30T21:03:11.500Z,0.61
2023-01-30T21:06:14.404Z,0.61
2023-01-30T21:09:37.237Z,0.59
2023-01-30T21:12:40.076Z,0.59
2023-01-30T21:16:08.076Z,0.63
2023-01-30T21:19:33.070Z,0.71
2023-01-30T21:22:36.944Z,0.75
2023-01-30T21:26:09.179Z,0.76
2023-01-30T21:29:15.004Z,0.81
2023-01-30T21:32:19.021Z,0.83
2023-01-30T21:35:22.087Z,0.84
2023-01-30T21:38:43.811Z,0.89
2023-01-30T21:42:05.499Z,0.91
2023-01-30T21:45:09.087Z,0.95
2023-01-30T21:48:12.037Z,0.97
2023-01-30T21:51:14.952Z,1.00
2023-01-30T21:54:18.400Z,1.02
2023-01-30T21:57:21.232Z,0.99
2023-01-30T22:00:24.102Z,1.00
2023-01-30T22:03:27.670Z,1.02
2023-01-30T22:06:31.027Z,1.05
2023-01-30T22:09:34.111Z,1.06
2023-01-30T22:12:38.694Z,1.08
2023-01-30T22:15:41.579Z,1.09
2023-01-30T22:18:45.522Z,1.13
2023-01-30T22:21:48.692Z,1.15
2023-01-30T22:24:51.519Z,1.17
2023-01-30T22:27:55.199Z,1.17
2023-01-30T22:31:18.575Z,1.13
2023-01-30T22:34:21.692Z,1.00
2023-01-30T22:37:24.575Z,0.84
2023-01-30T22:40:27.510Z,0.66
2023-01-30T22:43:31.697Z,0.45
2023-01-30T22:46:37.418Z,0.30
2023-01-30T22:49:40.392Z,0.21
2023-01-30T22:52:43.471Z,0.16
2023-01-30T22:55:46.315Z,0.09
2023-01-30T22:58:49.737Z,0.06
2023-01-30T23:01:53.010Z,0.02
2023-01-30T23:04:55.865Z,-0.00
2023-01-30T23:07:58.713Z,-0.04
2023-01-30T23:11:12.087Z,-0.08
2023-01-30T23:14:18.127Z,-0.11
2023-01-30T23:17:39.894Z,-0.13
2023-01-30T23:20:43.145Z,-0.10
2023-01-30T23:23:46.582Z,-0.07
2023-01-30T23:26:51.612Z,-0.03
2023-01-30T23:29:54.512Z,0.01
2023-01-30T23:32:57.624Z,0.02
2023-01-30T23:36:02.867Z,0.05
2023-01-30T23:39:05.974Z,0.05
2023-01-30T23:42:09.039Z,0.07
2023-01-30T23:45:11.929Z,0.06
2023-01-30T23:48:14.795Z,0.03
2023-01-30T23:51:19.500Z,0.06
2023-01-30T23:54:22.374Z,0.04
2023-01-30T23:57:25.193Z,0.04
